Time;durP1;ratioP1;P1;durP2;ratioP2;P2;SDS_P1;SDS_P2;PMS_P1;PMS_P2;Temp;Humidity;BMP_temperature;BMP_pressure;BME280_temperature;BME280_humidity;BME280_pressure;Samples;Min_cycle;Max_cycle;Signal;HPM_P1;HPM_P2
2023/10/15 00:02:05;;;;;;;4.88;3.05;;;;;;;11.03;75.55;96172.28;5136162;27;20098;-63
2023/10/15 00:04:33;;;;;;;4.97;2.80;;;;;;;10.99;75.48;96168.94;5135851;27;20515;-64
2023/10/15 00:07:05;;;;;;;6.47;2.95;;;;;;;10.95;76.28;96172.63;5136024;27;20082;-64
2023/10/15 00:09:32;;;;;;;8.68;3.35;;;;;;;10.98;76.41;96164.63;5136027;27;20151;-64
2023/10/15 00:12:00;;;;;;;4.75;2.83;;;;;;;11.01;76.66;96166.25;5135990;27;20070;-64
2023/10/15 00:14:27;;;;;;;8.52;3.35;;;;;;;10.95;76.69;96163.91;5135612;27;20050;-63
2023/10/15 00:16:53;;;;;;;5.00;3.05;;;;;;;10.89;77.40;96161.59;5135225;27;20043;-63
2023/10/15 00:19:22;;;;;;;4.40;2.85;;;;;;;10.82;77.52;96155.78;5135669;27;20043;-62
2023/10/15 00:21:49;;;;;;;6.70;3.28;;;;;;;10.77;77.98;96144.69;5135703;27;20043;-63
2023/10/15 00:24:16;;;;;;;4.68;3.10;;;;;;;10.77;78.50;96148.13;5135460;27;20043;-63
2023/10/15 00:26:44;;;;;;;5.57;3.45;;;;;;;10.76;77.90;96146.44;5135432;27;20100;-63
2023/10/15 00:29:11;;;;;;;6.10;3.28;;;;;;;10.76;77.63;96140.34;5135255;27;20055;-63
2023/10/15 00:31:41;;;;;;;5.60;3.65;;;;;;;10.74;77.97;96136.03;5135417;27;20129;-63
2023/10/15 00:34:12;;;;;;;10.07;3.53;;;;;;;10.72;78.02;96139.66;5135326;27;20058;-64
2023/10/15 00:36:41;;;;;;;6.22;3.50;;;;;;;10.70;78.27;96134.50;5135473;27;20057;-63
2023/10/15 00:39:19;;;;;;;7.85;3.30;;;;;;;10.65;78.43;96133.84;5135217;27;20096;-63
2023/10/15 00:41:47;;;;;;;6.93;4.05;;;;;;;10.60;78.74;96135.81;5135151;27;20043;-63
2023/10/15 00:44:16;;;;;;;3.72;2.88;;;;;;;10.60;78.59;96133.19;5135174;27;20043;-64
2023/10/15 00:46:45;;;;;;;6.38;3.33;;;;;;;10.57;78.39;96133.34;5135056;27;20469;-63
2023/10/15 00:49:13;;;;;;;6.43;3.33;;;;;;;10.54;78.65;96129.06;5135240;27;20454;-63
2023/10/15 00:51:45;;;;;;;4.70;2.90;;;;;;;10.57;78.20;96134.16;5134981;27;20082;-63
2023/10/15 00:54:16;;;;;;;7.97;3.22;;;;;;;10.56;77.94;96123.78;5135023;27;20126;-63
2023/10/15 00:56:44;;;;;;;;;;;;;;;10.55;77.88;96124.69;5135393;27;20058;-63
2023/10/15 00:59:17;;;;;;;6.13;3.35;;;;;;;10.41;78.19;96112.22;5134841;27;19919;-62
2023/10/15 01:01:53;;;;;;;6.82;3.45;;;;;;;10.38;79.00;96112.34;5134827;27;20484;-63
2023/10/15 01:04:24;;;;;;;3.88;3.20;;;;;;;10.35;79.30;96105.47;5134840;27;20092;-62
2023/10/15 01:06:57;;;;;;;4.85;3.40;;;;;;;10.34;78.62;96102.03;5134647;27;20104;-62
2023/10/15 01:09:28;;;;;;;5.55;3.25;;;;;;;10.29;78.69;96103.16;5134799;27;20125;-62
2023/10/15 01:11:57;;;;;;;6.10;3.95;;;;;;;10.25;79.37;96097.19;5134958;27;20043;-63
2023/10/15 01:14:28;;;;;;;7.07;3.50;;;;;;;10.25;80.25;96099.81;5134770;27;20100;-63
2023/10/15 01:16:55;;;;;;;7.55;3.50;;;;;;;10.23;80.12;96093.78;5134712;27;20047;-63
2023/10/15 01:19:31;;;;;;;8.35;3.55;;;;;;;10.26;80.21;96090.22;5134534;27;20047;-63
2023/10/15 01:22:02;;;;;;;8.77;4.00;;;;;;;10.29;79.64;96090.91;5134635;27;20043;-62
2023/10/15 01:24:32;;;;;;;;;;;;;;;10.31;79.55;96091.69;5135140;27;20412;-63
2023/10/15 01:27:08;;;;;;;5.32;3.38;;;;;;;10.21;79.39;96088.63;5134067;27;19923;-62
2023/10/15 01:29:36;;;;;;;7.30;3.20;;;;;;;10.22;79.80;96087.72;5093281;28;20051;-63
2023/10/15 01:32:08;;;;;;;5.57;3.15;;;;;;;10.27;79.45;96090.16;5093527;28;20468;-63
2023/10/15 01:34:38;;;;;;;4.38;2.90;;;;;;;10.30;79.29;96084.75;5093517;28;20094;-63
2023/10/15 01:37:13;;;;;;;7.53;3.20;;;;;;;10.28;79.07;96083.13;5093718;28;20048;-63
2023/10/15 01:39:40;;;;;;;6.95;3.80;;;;;;;10.31;79.80;96094.31;5093346;28;20044;-63
2023/10/15 01:42:28;;;;;;;4.45;3.30;;;;;;;10.26;79.44;96085.81;5093402;28;20131;-63
2023/10/15 01:45:08;;;;;;;4.50;3.10;;;;;;;10.27;79.16;96081.44;5093228;28;20048;-62
2023/10/15 01:47:36;;;;;;;6.72;3.25;;;;;;;10.26;78.98;96083.19;5093118;28;20054;-64
2023/10/15 01:50:09;;;;;;;4.53;3.50;;;;;;;10.19;79.33;96079.16;5093197;28;20477;-63
2023/10/15 01:52:40;;;;;;;5.35;3.60;;;;;;;10.21;79.77;96086.00;5093152;28;20048;-63
2023/10/15 01:55:08;;;;;;;5.38;3.00;;;;;;;10.22;79.15;96082.50;5093227;28;20139;-63
2023/10/15 01:57:37;;;;;;;7.22;3.22;;;;;;;10.18;78.28;96080.91;5093160;28;20101;-62
2023/10/15 02:00:12;;;;;;;5.13;3.10;;;;;;;10.12;78.95;96075.97;5093213;28;20101;-63
2023/10/15 02:02:40;;;;;;;12.05;3.30;;;;;;;10.06;79.58;96086.69;5093110;28;20500;-62
2023/10/15 02:05:16;;;;;;;5.50;3.58;;;;;;;10.06;80.25;96079.69;5093096;28;20048;-62
2023/10/15 02:07:44;;;;;;;6.45;3.50;;;;;;;10.10;79.60;96080.41;5093057;28;20044;-63
2023/10/15 02:10:13;;;;;;;5.78;3.70;;;;;;;10.08;79.77;96072.66;5093043;28;20127;-63
2023/10/15 02:12:41;;;;;;;4.47;3.03;;;;;;;10.05;79.80;96070.16;5093323;28;20470;-63
2023/10/15 02:15:15;;;;;;;8.48;3.72;;;;;;;9.96;80.17;96076.63;5093042;28;20131;-62
2023/10/15 02:17:44;;;;;;;5.32;3.53;;;;;;;9.94;80.51;96075.00;5093054;28;20513;-62
2023/10/15 02:20:13;;;;;;;4.50;3.37;;;;;;;9.97;80.08;96075.72;5093232;28;20047;-62
2023/10/15 02:22:40;;;;;;;8.55;3.22;;;;;;;9.91;79.71;96076.00;5093205;28;20044;-63
2023/10/15 02:25:08;;;;;;;7.53;4.38;;;;;;;9.85;79.41;96074.47;5093161;28;20050;-61
2023/10/15 02:27:35;;;;;;;6.13;3.08;;;;;;;9.78;79.75;96075.66;5100501;28;20055;-62
2023/10/15 02:30:07;;;;;;;7.47;4.40;;;;;;;9.75;80.95;96073.16;5133809;28;20043;-63
2023/10/15 02:32:34;;;;;;;5.93;3.88;;;;;;;9.79;81.45;96064.31;5133851;28;20116;-63
2023/10/15 02:35:12;;;;;;;6.93;4.10;;;;;;;9.81;81.90;96069.47;5133752;28;20451;-62
2023/10/15 02:37:40;;;;;;;6.43;3.53;;;;;;;9.80;81.35;96065.13;5133627;28;20074;-62
2023/10/15 02:40:20;;;;;;;5.45;3.72;;;;;;;9.81;80.63;96062.47;5136793;27;20066;-62
2023/10/15 02:42:53;;;;;;;11.32;3.83;;;;;;;9.79;80.77;96064.31;5137497;27;20552;-63
2023/10/15 02:45:23;;;;;;;5.00;4.20;;;;;;;9.79;81.07;96066.06;5137591;27;20051;-63
2023/10/15 02:47:55;;;;;;;5.85;2.97;;;;;;;9.79;80.71;96061.69;5137426;27;20090;-62
2023/10/15 02:50:26;;;;;;;5.82;3.50;;;;;;;9.77;81.45;96060.91;5137408;27;20043;-63
2023/10/15 02:52:54;;;;;;;11.38;4.18;;;;;;;9.71;80.67;96058.53;5137400;27;20058;-62
2023/10/15 02:55:26;;;;;;;8.75;3.88;;;;;;;9.68;81.13;96059.53;5137380;27;20484;-63
2023/10/15 02:58:00;;;;;;;5.97;3.67;;;;;;;9.70;81.83;96057.69;5137262;27;20126;-62
2023/10/15 03:00:31;;;;;;;6.88;3.97;;;;;;;9.76;80.55;96050.50;5137118;27;20496;-63
2023/10/15 03:03:06;;;;;;;10.85;4.22;;;;;;;9.73;80.86;96051.50;5137142;27;20070;-63
2023/10/15 03:05:39;;;;;;;9.93;3.30;;;;;;;9.71;80.13;96053.31;5137342;27;20051;-62
2023/10/15 03:08:06;;;;;;;9.52;3.72;;;;;;;9.68;79.99;96053.44;5137230;27;20071;-63
2023/10/15 03:10:46;;;;;;;5.80;4.05;;;;;;;9.61;80.00;96048.47;5136938;27;20043;-61
2023/10/15 03:13:14;;;;;;;7.10;3.75;;;;;;;9.61;80.68;96047.66;5137088;27;20074;-63
2023/10/15 03:15:48;;;;;;;5.43;3.65;;;;;;;9.63;80.97;96044.97;5137137;27;20043;-62
2023/10/15 03:18:22;;;;;;;5.68;3.50;;;;;;;9.60;80.88;96041.56;5136857;27;20047;-62
2023/10/15 03:20:49;;;;;;;6.40;4.00;;;;;;;9.60;81.30;96038.09;5136888;27;20130;-63
2023/10/15 03:23:17;;;;;;;8.93;3.92;;;;;;;9.56;81.04;96033.91;5136817;27;20134;-63
2023/10/15 03:25:47;;;;;;;5.45;4.15;;;;;;;9.51;81.23;96038.50;5136734;27;20548;-62
2023/10/15 03:28:15;;;;;;;14.18;3.97;;;;;;;9.50;81.54;96032.41;5136778;27;20055;-62
2023/10/15 03:30:45;;;;;;;6.22;3.65;;;;;;;9.52;81.52;96028.00;5136815;27;20058;-62
2023/10/15 03:33:13;;;;;;;5.85;3.88;;;;;;;9.53;81.01;96021.00;5137067;27;20082;-63
2023/10/15 03:35:43;;;;;;;10.40;4.00;;;;;;;9.42;81.37;96017.06;5136701;27;20133;-63
2023/10/15 03:38:14;;;;;;;4.13;3.10;;;;;;;9.44;81.37;96022.22;5136729;27;20051;-62
2023/10/15 03:40:46;;;;;;;5.25;3.88;;;;;;;9.44;81.41;96020.47;5136626;27;20049;-62
2023/10/15 03:43:20;;;;;;;7.05;4.30;;;;;;;9.45;81.45;96024.78;5136548;27;20476;-62
2023/10/15 03:45:51;;;;;;;5.30;3.47;;;;;;;9.47;80.80;96019.50;5136650;27;20047;-62
2023/10/15 03:48:21;;;;;;;6.10;4.15;;;;;;;9.46;81.70;96015.19;5136372;27;20051;-62
2023/10/15 03:50:54;;;;;;;8.23;3.72;;;;;;;9.50;81.59;96008.06;5135545;27;20043;-62
2023/10/15 03:53:22;;;;;;;8.05;4.05;;;;;;;9.47;81.17;96019.50;5136206;27;20043;-62
2023/10/15 03:55:50;;;;;;;7.85;3.75;;;;;;;9.44;81.11;96020.47;5136366;27;20079;-61
2023/10/15 03:58:21;;;;;;;6.13;3.95;;;;;;;9.42;81.27;96011.84;5136216;27;20050;-62
2023/10/15 04:00:56;;;;;;;8.43;3.58;;;;;;;9.41;80.52;96010.16;5136274;27;20103;-62
2023/10/15 04:03:28;;;;;;;8.90;3.85;;;;;;;9.37;80.59;96003.38;5135995;27;20134;-61
2023/10/15 04:06:00;;;;;;;5.72;4.13;;;;;;;9.38;80.90;95999.00;5135986;27;20054;-62
2023/10/15 04:08:31;;;;;;;7.25;3.90;;;;;;;9.27;81.40;95992.44;5135944;27;20555;-62
2023/10/15 04:10:58;;;;;;;6.63;3.97;;;;;;;9.19;82.67;95990.19;5135997;27;20485;-61
2023/10/15 04:13:27;;;;;;;8.80;4.30;;;;;;;9.21;83.01;95996.19;5135890;27;20097;-61
2023/10/15 04:15:56;;;;;;;6.88;4.25;;;;;;;9.21;82.92;95988.34;5135798;27;20083;-62
2023/10/15 04:18:24;;;;;;;6.45;3.83;;;;;;;9.19;82.30;95989.31;5135699;27;20051;-61
2023/10/15 04:20:52;;;;;;;7.47;4.50;;;;;;;9.16;82.09;95992.06;5135785;27;20099;-62
2023/10/15 04:23:31;;;;;;;8.90;4.00;;;;;;;9.16;82.33;95989.44;5135647;27;20050;-62
2023/10/15 04:26:03;;;;;;;6.20;4.07;;;;;;;9.08;82.93;95971.50;5135605;27;20039;-62
2023/10/15 04:28:30;;;;;;;7.75;4.30;;;;;;;9.14;82.79;95986.91;5135419;27;20377;-63
2023/10/15 04:30:59;;;;;;;8.35;3.83;;;;;;;9.19;82.47;95986.72;5135469;27;20039;-63
2023/10/15 04:33:30;;;;;;;6.05;4.00;;;;;;;9.20;82.17;95988.41;5135345;27;20085;-63
2023/10/15 04:35:57;;;;;;;5.82;4.38;;;;;;;9.18;82.54;95985.84;5135293;27;20047;-63
2023/10/15 04:38:28;;;;;;;8.73;4.20;;;;;;;9.22;82.10;95983.97;5135280;27;20043;-63
2023/10/15 04:41:03;;;;;;;;;;;;;;;9.21;82.07;95990.09;5135882;27;20493;-63
2023/10/15 04:43:40;;;;;;;7.80;4.25;;;;;;;9.21;83.32;95987.50;5135161;27;19919;-62
2023/10/15 04:46:09;;;;;;;6.45;4.13;;;;;;;9.23;83.65;95983.91;5135103;27;20070;-62
2023/10/15 04:48:37;;;;;;;7.70;3.70;;;;;;;9.28;83.94;95991.56;5134989;27;20047;-62
2023/10/15 04:51:13;;;;;;;6.30;4.05;;;;;;;9.35;84.05;95995.63;5135090;27;20047;-62
2023/10/15 04:53:44;;;;;;;9.35;4.13;;;;;;;9.33;84.34;95987.00;5135078;27;20071;-62
2023/10/15 04:56:12;;;;;;;7.30;4.40;;;;;;;9.47;84.92;95990.78;5134968;27;20043;-62
2023/10/15 04:58:39;;;;;;;5.63;4.50;;;;;;;9.55;85.00;95993.94;5134908;27;20043;-62
2023/10/15 05:01:09;;;;;;;7.85;4.47;;;;;;;9.61;84.51;95987.59;5134780;27;20047;-62
2023/10/15 05:03:38;;;;;;;6.63;4.63;;;;;;;9.67;84.41;95989.94;5134727;27;20125;-62
2023/10/15 05:06:10;;;;;;;8.93;4.57;;;;;;;9.73;83.79;95994.03;5134710;27;20563;-61
2023/10/15 05:08:40;;;;;;;4.10;3.03;;;;;;;9.80;83.67;95982.41;5134736;27;20463;-63
2023/10/15 05:11:09;;;;;;;9.27;4.32;;;;;;;9.88;84.02;95987.31;5135129;27;20451;-62
2023/10/15 05:13:37;;;;;;;6.32;3.85;;;;;;;10.00;84.05;95980.69;5134641;27;20096;-62
2023/10/15 05:16:04;;;;;;;7.13;3.97;;;;;;;10.65;83.82;95983.91;5134743;27;20489;-62
2023/10/15 05:18:33;;;;;;;6.18;3.20;;;;;;;11.75;78.82;95988.16;5134492;27;20051;-62
2023/10/15 05:21:00;;;;;;;6.57;3.08;;;;;;;12.96;73.32;95985.25;5134524;27;20043;-62
2023/10/15 05:23:28;;;;;;;10.25;2.90;;;;;;;14.08;67.60;95994.56;5134462;27;20083;-62
2023/10/15 05:25:56;;;;;;;7.70;2.97;;;;;;;15.10;64.16;96004.13;5134496;27;20103;-62
2023/10/15 05:28:24;;;;;;;4.78;3.03;;;;;;;15.88;60.07;96014.84;5134247;27;20445;-63
2023/10/15 05:30:52;;;;;;;5.50;2.45;;;;;;;16.79;56.84;96005.06;5134519;27;20082;-62
2023/10/15 05:33:20;;;;;;;7.25;2.60;;;;;;;17.74;54.09;96009.72;5134378;27;20061;-63
2023/10/15 05:35:49;;;;;;;5.80;2.45;;;;;;;18.55;51.82;96004.44;5134350;27;20086;-63
2023/10/15 05:38:16;;;;;;;3.80;2.40;;;;;;;19.15;51.18;96013.88;5134297;27;20075;-63
2023/10/15 05:40:44;;;;;;;6.82;3.15;;;;;;;19.79;49.27;96011.34;5134300;27;20043;-63
2023/10/15 05:43:11;;;;;;;3.88;2.60;;;;;;;20.37;48.97;96013.63;5134224;27;20047;-63
2023/10/15 05:45:42;;;;;;;4.68;2.83;;;;;;;20.96;47.90;96016.56;5134036;27;20491;-62
2023/10/15 05:48:09;;;;;;;6.68;2.63;;;;;;;21.63;45.86;96017.72;5134094;27;20051;-62
2023/10/15 05:50:37;;;;;;;4.32;2.28;;;;;;;22.18;45.24;96018.94;5134179;27;20043;-63
2023/10/15 05:53:06;;;;;;;4.68;2.40;;;;;;;22.93;43.85;96028.78;5134061;27;20047;-63
2023/10/15 05:55:33;;;;;;;9.77;2.78;;;;;;;23.60;41.15;96022.34;5134099;27;20051;-62
2023/10/15 05:58:00;;;;;;;6.65;2.47;;;;;;;24.08;40.62;96024.72;5134000;28;20551;-62
2023/10/15 06:00:27;;;;;;;5.35;2.72;;;;;;;24.48;39.43;96029.69;5134171;28;20051;-62
2023/10/15 06:02:55;;;;;;;6.68;2.53;;;;;;;24.95;38.05;96030.28;5134038;28;20481;-62
2023/10/15 06:05:23;;;;;;;4.43;2.28;;;;;;;25.49;37.01;96021.03;5134146;28;20051;-62
2023/10/15 06:07:51;;;;;;;5.03;2.75;;;;;;;25.96;36.15;96026.78;5134396;27;20055;-63
2023/10/15 06:10:20;;;;;;;5.22;2.70;;;;;;;26.42;35.20;96026.25;5133877;27;20051;-63
2023/10/15 06:12:47;;;;;;;5.35;2.70;;;;;;;26.81;34.71;96021.94;5133916;28;20135;-62
2023/10/15 06:15:15;;;;;;;10.52;2.85;;;;;;;27.21;33.86;96021.94;5137262;27;20205;-62
2023/10/15 06:17:43;;;;;;;3.90;2.30;;;;;;;27.55;33.74;96011.84;5138400;27;20046;-62
2023/10/15 06:20:13;;;;;;;5.13;2.30;;;;;;;28.08;33.65;96016.47;5138010;27;20496;-62
2023/10/15 06:22:41;;;;;;;4.57;2.58;;;;;;;28.74;32.76;96019.53;5137997;27;20415;-62
2023/10/15 06:25:09;;;;;;;9.90;2.90;;;;;;;29.31;32.38;96019.03;5137982;27;20529;-63
2023/10/15 06:27:40;;;;;;;5.70;2.75;;;;;;;29.82;31.68;96014.56;5137599;27;20103;-63
2023/10/15 06:30:14;;;;;;;6.72;2.72;;;;;;;30.29;30.60;96014.16;5137781;27;20051;-60
2023/10/15 06:32:42;;;;;;;9.23;2.63;;;;;;;30.38;30.70;96007.56;5137852;27;20481;-63
2023/10/15 06:35:09;;;;;;;8.90;2.60;;;;;;;30.71;30.56;96009.66;5137806;27;20043;-63
2023/10/15 06:37:38;;;;;;;5.43;2.92;;;;;;;30.99;30.18;96010.63;5137653;27;20527;-63
2023/10/15 06:40:08;;;;;;;7.47;2.67;;;;;;;31.20;30.00;96006.97;5138002;27;20135;-60
2023/10/15 06:42:35;;;;;;;4.38;2.72;;;;;;;31.48;28.84;96007.91;5137755;27;20047;-62
2023/10/15 06:45:06;;;;;;;7.85;2.65;;;;;;;31.84;28.64;96008.59;5137575;27;20043;-63
2023/10/15 06:47:33;;;;;;;10.98;2.72;;;;;;;32.34;27.81;96005.47;5137661;27;20039;-63
2023/10/15 06:50:00;;;;;;;6.35;3.35;;;;;;;32.72;26.97;96006.66;5137578;27;20051;-62
2023/10/15 06:52:32;;;;;;;6.68;3.08;;;;;;;33.20;26.78;96003.81;5137589;27;20047;-63
2023/10/15 06:54:59;;;;;;;8.80;2.72;;;;;;;33.35;26.78;96009.78;5137523;27;20104;-63
2023/10/15 06:57:27;;;;;;;6.70;2.72;;;;;;;33.19;25.43;96007.59;5137523;27;20049;-62
2023/10/15 06:59:54;;;;;;;6.60;2.85;;;;;;;33.52;25.72;95998.44;5137247;27;20050;-63
2023/10/15 07:02:23;;;;;;;10.13;3.05;;;;;;;33.82;25.48;96000.56;5137157;27;20086;-63
2023/10/15 07:04:51;;;;;;;6.68;2.92;;;;;;;34.12;25.29;96008.06;5137246;27;20457;-63
2023/10/15 07:07:18;;;;;;;5.75;2.95;;;;;;;34.04;25.21;96014.56;5137172;27;20047;-63
2023/10/15 07:09:46;;;;;;;5.38;2.88;;;;;;;33.83;25.04;96006.81;5137068;27;20047;-63
2023/10/15 07:12:13;;;;;;;12.80;3.20;;;;;;;33.77;24.88;96003.91;5137103;27;20043;-63
2023/10/15 07:14:40;;;;;;;10.20;3.55;;;;;;;32.98;25.43;96013.03;5137114;27;20043;-63
2023/10/15 07:17:08;;;;;;;10.73;3.92;;;;;;;31.61;27.35;95990.91;5137042;27;20044;-63
2023/10/15 07:19:36;;;;;;;6.97;2.90;;;;;;;30.36;28.74;95990.75;5137018;27;20557;-63
2023/10/15 07:22:04;;;;;;;8.25;3.22;;;;;;;29.16;31.38;95990.25;5137063;27;20055;-63
2023/10/15 07:24:31;;;;;;;5.97;3.30;;;;;;;28.15;33.07;95980.81;5136818;27;20066;-63
2023/10/15 07:27:01;;;;;;;8.38;3.70;;;;;;;27.27;34.12;95973.94;5135666;27;20047;-63
2023/10/15 07:29:29;;;;;;;4.60;3.08;;;;;;;26.52;35.40;95977.81;5136354;27;20462;-62
2023/10/15 07:31:56;;;;;;;12.43;3.10;;;;;;;25.74;36.56;95968.34;5136695;27;20126;-62
2023/10/15 07:34:24;;;;;;;6.18;3.10;;;;;;;25.24;37.80;95971.00;5136880;27;20054;-63
2023/10/15 07:36:55;;;;;;;6.95;3.58;;;;;;;24.73;38.91;95970.97;5136573;27;20062;-63
2023/10/15 07:39:23;;;;;;;9.05;3.25;;;;;;;24.25;39.85;95966.09;5136550;27;20039;-62
2023/10/15 07:41:51;;;;;;;5.70;3.28;;;;;;;23.85;41.40;95963.81;5136340;27;20047;-62
2023/10/15 07:44:19;;;;;;;7.95;3.70;;;;;;;23.71;41.62;95959.03;5136442;27;20047;-62
2023/10/15 07:46:52;;;;;;;7.68;3.15;;;;;;;23.54;41.81;95958.88;5136301;27;20057;-62
2023/10/15 07:49:20;;;;;;;6.13;3.25;;;;;;;23.39;43.25;95958.59;5136296;27;20051;-63
2023/10/15 07:51:48;;;;;;;10.90;3.78;;;;;;;23.45;42.53;95952.66;5136271;27;20426;-62
2023/10/15 07:54:16;;;;;;;9.82;3.95;;;;;;;23.83;41.47;95956.94;5136204;27;20045;-63
2023/10/15 07:56:43;;;;;;;6.57;3.22;;;;;;;24.00;40.53;95959.72;5136278;27;20122;-63
2023/10/15 07:59:11;;;;;;;7.20;2.90;;;;;;;23.83;40.43;95956.94;5136335;27;20039;-63
2023/10/15 08:01:38;;;;;;;8.02;3.00;;;;;;;23.59;41.18;95951.28;5136181;27;20140;-63
2023/10/15 08:04:06;;;;;;;11.00;3.35;;;;;;;23.52;41.16;95958.22;5136082;27;20047;-63
2023/10/15 08:06:34;;;;;;;11.73;3.90;;;;;;;23.79;40.97;95958.25;5136011;27;20051;-63
2023/10/15 08:09:02;;;;;;;7.63;2.92;;;;;;;24.17;39.56;95948.19;5135924;27;20043;-62
2023/10/15 08:11:31;;;;;;;6.57;2.85;;;;;;;24.59;39.05;95954.56;5135873;27;20047;-62
2023/10/15 08:13:59;;;;;;;11.23;3.22;;;;;;;24.84;38.43;95945.78;5135994;27;20039;-63
2023/10/15 08:16:26;;;;;;;12.85;3.08;;;;;;;24.95;38.31;95947.38;5135823;27;20514;-63
2023/10/15 08:18:54;;;;;;;7.28;3.33;;;;;;;24.91;38.31;95936.16;5135791;27;20057;-62
2023/10/15 08:21:22;;;;;;;12.20;3.15;;;;;;;24.89;39.16;95940.00;5135832;27;20043;-62
2023/10/15 08:23:50;;;;;;;12.55;3.30;;;;;;;24.80;38.71;95942.59;5135571;27;20047;-63
2023/10/15 08:26:17;;;;;;;10.00;3.42;;;;;;;24.92;39.26;95929.78;5135854;27;20451;-62
2023/10/15 08:28:46;;;;;;;8.93;3.30;;;;;;;25.21;38.82;95930.34;5135279;27;20488;-62
2023/10/15 08:31:14;;;;;;;5.60;3.22;;;;;;;25.39;38.58;95927.50;5135619;27;20039;-63
2023/10/15 08:33:41;;;;;;;10.57;3.75;;;;;;;25.57;37.53;95921.16;5135491;27;20047;-62
2023/10/15 08:36:09;;;;;;;6.72;3.42;;;;;;;25.69;38.04;95921.69;5135394;27;20404;-62
2023/10/15 08:38:37;;;;;;;6.28;3.05;;;;;;;25.73;37.57;95926.53;5135147;27;20111;-62
2023/10/15 08:41:12;;;;;;;10.15;3.55;;;;;;;25.58;38.03;95926.34;5135313;27;20051;-62
2023/10/15 08:43:44;;;;;;;5.93;3.30;;;;;;;25.57;37.81;95927.34;5135251;27;20547;-63
2023/10/15 08:46:13;;;;;;;11.25;3.42;;;;;;;25.61;37.98;95925.19;5135394;27;20070;-61
2023/10/15 08:48:42;;;;;;;5.90;3.25;;;;;;;25.77;38.31;95918.16;5135126;27;20381;-62
2023/10/15 08:51:10;;;;;;;8.20;3.80;;;;;;;25.88;38.27;95925.00;5134944;27;20043;-61
2023/10/15 08:53:41;;;;;;;8.40;3.20;;;;;;;25.78;37.11;95931.38;5135146;27;20133;-62
2023/10/15 08:56:10;;;;;;;7.63;3.08;;;;;;;25.52;38.51;95929.69;5134843;27;20055;-63
2023/10/15 08:58:40;;;;;;;6.67;3.03;;;;;;;25.69;37.78;95921.69;5134974;27;20142;-63
2023/10/15 09:01:07;;;;;;;7.40;3.47;;;;;;;25.91;37.27;95919.31;5135371;27;20130;-62
2023/10/15 09:03:38;;;;;;;5.95;3.30;;;;;;;25.83;37.70;95910.25;5134973;27;20043;-61
2023/10/15 09:06:06;;;;;;;9.07;3.53;;;;;;;25.93;37.55;95918.13;5135156;27;20043;-61
2023/10/15 09:08:35;;;;;;;10.63;3.10;;;;;;;25.88;37.06;95914.31;5134871;27;20556;-63
2023/10/15 09:11:04;;;;;;;8.90;3.63;;;;;;;25.92;37.26;95918.31;5134748;27;20059;-63
2023/10/15 09:13:36;;;;;;;10.60;4.05;;;;;;;25.99;37.63;95912.09;5134772;27;20054;-63
2023/10/15 09:16:05;;;;;;;10.07;3.78;;;;;;;26.02;37.45;95907.38;5134652;27;20520;-63
2023/10/15 09:18:37;;;;;;;10.50;3.38;;;;;;;25.94;37.60;95909.09;5134679;27;20039;-61
2023/10/15 09:21:05;;;;;;;9.02;3.42;;;;;;;25.81;36.83;95906.09;5134622;27;20118;-63
2023/10/15 09:23:35;;;;;;;6.88;3.63;;;;;;;25.60;37.52;95907.47;5134684;27;20076;-61
2023/10/15 09:26:02;;;;;;;7.72;3.45;;;;;;;25.43;37.88;95902.09;5134855;27;20073;-63
2023/10/15 09:28:35;;;;;;;10.48;3.05;;;;;;;25.41;38.04;95905.94;5134334;27;20082;-62
2023/10/15 09:31:06;;;;;;;11.27;3.42;;;;;;;25.57;38.44;95897.06;5134380;27;20480;-63
2023/10/15 09:33:34;;;;;;;11.15;3.00;;;;;;;25.72;37.43;95897.25;5134327;27;20126;-63
2023/10/15 09:36:05;;;;;;;6.82;3.40;;;;;;;25.92;37.38;95888.84;5134386;27;20047;-62
2023/10/15 09:38:32;;;;;;;;;;;;;;;25.97;36.03;95886.47;5135002;27;20043;-63
2023/10/15 09:40:59;;;;;;;8.60;3.60;;;;;;;25.95;36.85;95883.16;5134286;27;19974;-63
2023/10/15 09:43:28;;;;;;;11.18;3.40;;;;;;;25.71;37.35;95879.50;5134160;27;20059;-62
2023/10/15 09:45:55;;;;;;;7.57;3.20;;;;;;;25.69;37.11;95886.88;5134302;27;20047;-62
2023/10/15 09:48:25;;;;;;;10.55;3.63;;;;;;;25.81;37.40;95873.97;5133315;27;20404;-61
2023/10/15 09:50:56;;;;;;;8.82;3.47;;;;;;;25.87;36.90;95873.28;5134139;27;20051;-62
2023/10/15 09:53:27;;;;;;;6.50;3.22;;;;;;;26.03;36.95;95874.25;5134190;27;20043;-63
2023/10/15 09:55:57;;;;;;;5.68;2.67;;;;;;;26.13;36.07;95869.53;5134088;27;20484;-63
2023/10/15 09:58:25;;;;;;;;;;;;;;;26.13;36.29;95872.22;5134575;28;20039;-63
2023/10/15 10:01:08;;;;;;;8.05;3.10;;;;;;;26.04;36.71;95867.88;5134102;27;19919;-62
2023/10/15 10:04:06;;;;;;;17.05;3.72;;;;;;;26.03;36.09;95869.72;5133989;28;20537;-62
2023/10/15 10:06:54;;;;;;;311.27;18.45;;;;;;;25.70;36.38;95869.78;5131642;27;20051;-63
2023/10/15 10:09:51;;;;;;;9.20;3.30;;;;;;;25.52;37.47;95861.94;5133892;28;20550;-63
2023/10/15 10:12:32;;;;;;;8.90;3.75;;;;;;;25.59;37.40;95855.75;5134147;27;20178;-62
2023/10/15 10:15:12;;;;;;;;;;;;;;;25.66;37.73;95849.72;5134298;28;20054;-62
2023/10/15 10:17:40;;;;;;;;;;;;;;;25.69;37.55;95852.91;5134365;27;19962;-63
2023/10/15 10:20:11;;;;;;;4.40;3.10;;;;;;;25.72;37.99;95841.88;5133858;27;19919;-64
2023/10/15 10:22:39;;;;;;;201.50;21.80;;;;;;;25.83;37.66;95835.28;5133735;27;20051;-63
2023/10/15 10:25:11;;;;;;;15.50;3.60;;;;;;;25.82;37.03;95835.47;5133729;27;20051;-62
2023/10/15 10:27:45;;;;;;;10.38;3.42;;;;;;;25.81;36.73;95823.09;5133511;27;20086;-63
2023/10/15 10:30:30;;;;;;;11.77;3.55;;;;;;;25.95;37.00;95814.31;5133669;27;20404;-63
2023/10/15 10:32:59;;;;;;;7.97;3.35;;;;;;;25.93;36.85;95818.19;5133682;27;20054;-63
2023/10/15 10:35:27;;;;;;;10.43;3.80;;;;;;;25.95;36.88;95816.19;5133716;28;20103;-62
2023/10/15 10:38:05;;;;;;;15.30;3.90;;;;;;;25.80;36.65;95814.22;5133826;27;20047;-63
2023/10/15 10:40:53;;;;;;;11.25;3.90;;;;;;;25.82;36.49;95814.03;5133660;27;20047;-62
2023/10/15 10:43:24;;;;;;;6.78;3.53;;;;;;;25.88;36.72;95799.97;5134022;27;20111;-62
2023/10/15 10:45:56;;;;;;;13.70;3.33;;;;;;;25.93;36.26;95807.47;5133676;27;20516;-63
2023/10/15 10:48:25;;;;;;;9.73;3.75;;;;;;;25.94;37.42;95801.09;5133801;27;20142;-62
2023/10/15 10:51:15;;;;;;;150.48;10.07;;;;;;;26.04;35.64;95796.41;5133715;27;20051;-63
2023/10/15 10:54:15;;;;;;;9.38;3.92;;;;;;;25.88;36.02;95796.47;5128267;27;20050;-63
2023/10/15 10:57:08;;;;;;;9.02;3.90;;;;;;;25.91;36.39;95786.22;5133500;28;20043;-64
2023/10/15 10:59:38;;;;;;;10.05;3.80;;;;;;;26.10;36.37;95789.50;5134078;27;20069;-62
2023/10/15 11:02:13;;;;;;;13.00;4.57;;;;;;;26.21;36.06;95788.25;5137336;27;20050;-63
2023/10/15 11:04:41;;;;;;;8.98;3.67;;;;;;;26.30;35.73;95779.22;5137461;27;20393;-62
2023/10/15 11:07:10;;;;;;;7.03;3.70;;;;;;;26.31;35.97;95777.38;5137151;27;20047;-63
2023/10/15 11:09:41;;;;;;;31.48;5.30;;;;;;;26.34;35.35;95783.19;5137004;27;20043;-62
2023/10/15 11:12:11;;;;;;;11.15;4.32;;;;;;;26.33;35.03;95773.50;5137083;27;20081;-62
2023/10/15 11:14:39;;;;;;;13.02;4.50;;;;;;;26.43;34.49;95777.81;5137187;27;20047;-63
2023/10/15 11:17:10;;;;;;;15.95;3.80;;;;;;;26.43;34.28;95777.81;5136976;27;20046;-64
2023/10/15 11:19:41;;;;;;;11.30;3.90;;;;;;;26.39;34.29;95771.13;5136867;27;20043;-63
2023/10/15 11:22:08;;;;;;;6.93;3.97;;;;;;;26.37;34.36;95768.63;5137017;27;20043;-64
2023/10/15 11:24:36;;;;;;;7.35;3.53;;;;;;;26.38;33.79;95775.66;5136863;27;20126;-63
2023/10/15 11:27:06;;;;;;;14.63;4.15;;;;;;;26.32;34.56;95779.88;5136892;27;20066;-63
2023/10/15 11:29:35;;;;;;;;;;;;;;;26.36;33.32;95777.66;5137246;27;20561;-64
2023/10/15 11:32:06;;;;;;;8.73;4.25;;;;;;;26.35;33.30;95766.13;5136629;27;20365;-62
2023/10/15 11:34:35;;;;;;;;;;;;;;;26.38;33.45;95764.94;5137107;27;20435;-63
2023/10/15 11:37:06;;;;;;;13.20;4.00;;;;;;;26.32;35.08;95763.78;5136697;27;20011;-62
2023/10/15 11:39:43;;;;;;;12.55;4.28;;;;;;;26.39;34.49;95765.78;5136736;27;20123;-62
2023/10/15 11:42:11;;;;;;;10.18;3.63;;;;;;;26.29;34.17;95755.22;5136500;27;20044;-64
2023/10/15 11:44:45;;;;;;;11.25;4.30;;;;;;;26.28;33.64;95757.09;5136401;27;20496;-64
2023/10/15 11:47:24;;;;;;;5.90;3.55;;;;;;;26.27;34.09;95752.72;5136365;27;20070;-62
2023/10/15 11:49:54;;;;;;;11.55;3.95;;;;;;;26.36;33.55;95740.13;5136276;27;20047;-64
2023/10/15 11:52:22;;;;;;;13.70;4.20;;;;;;;26.32;33.62;95745.03;5136289;27;20043;-64